sensor_id;sensor_type;location;lat;lon;timestamp;pressure;altitude;pressure_sealevel;temperature;humidity
62725;BME280;49026;52.600;4.694;2022-09-25T00:01:36;101701.72;;;8.12;71.16
62725;BME280;49026;52.600;4.694;2022-09-25T00:04:02;101695.69;;;8.09;71.05
62725;BME280;49026;52.600;4.694;2022-09-25T00:06:28;101705.34;;;8.05;71.04
62725;BME280;49026;52.600;4.694;2022-09-25T00:08:54;101703.59;;;8.04;71.28
62725;BME280;49026;52.600;4.694;2022-09-25T00:11:30;101709.72;;;8.03;71.55
62725;BME280;49026;52.600;4.694;2022-09-25T00:13:58;101704.50;;;8.02;71.71
62725;BME280;49026;52.600;4.694;2022-09-25T00:16:26;101708.03;;;8.01;71.55
62725;BME280;49026;52.600;4.694;2022-09-25T00:18:54;101716.72;;;8.03;71.35
62725;BME280;49026;52.600;4.694;2022-09-25T00:21:38;101716.72;;;8.03;71.85
62725;BME280;49026;52.600;4.694;2022-09-25T00:24:06;101707.97;;;8.04;71.85
62725;BME280;49026;52.600;4.694;2022-09-25T00:26:34;101710.56;;;8.05;71.73
62725;BME280;49026;52.600;4.694;2022-09-25T00:29:01;101708.88;;;8.01;71.75
62725;BME280;49026;52.600;4.694;2022-09-25T00:31:27;101699.41;;;7.94;71.59
62725;BME280;49026;52.600;4.694;2022-09-25T00:33:56;101705.59;;;7.87;71.84
62725;BME280;49026;52.600;4.694;2022-09-25T00:36:22;101696.97;;;7.80;71.34
62725;BME280;49026;52.600;4.694;2022-09-25T00:38:47;101703.16;;;7.76;71.46
62725;BME280;49026;52.600;4.694;2022-09-25T00:41:18;101700.59;;;7.71;71.49
62725;BME280;49026;52.600;4.694;2022-09-25T00:43:50;101704.09;;;7.72;71.44
62725;BME280;49026;52.600;4.694;2022-09-25T00:46:33;101711.06;;;7.71;71.45
62725;BME280;49026;52.600;4.694;2022-09-25T00:49:09;101705.97;;;7.64;71.43
62725;BME280;49026;52.600;4.694;2022-09-25T00:51:56;101702.50;;;7.60;71.22
62725;BME280;49026;52.600;4.694;2022-09-25T00:54:29;101698.16;;;7.59;71.46
62725;BME280;49026;52.600;4.694;2022-09-25T00:56:57;101696.47;;;7.55;71.15
62725;BME280;49026;52.600;4.694;2022-09-25T00:59:38;101694.78;;;7.52;71.89
62725;BME280;49026;52.600;4.694;2022-09-25T01:02:06;101704.41;;;7.49;71.46
62725;BME280;49026;52.600;4.694;2022-09-25T01:04:35;101699.22;;;7.46;71.10
62725;BME280;49026;52.600;4.694;2022-09-25T01:07:02;101702.72;;;7.45;72.02
62725;BME280;49026;52.600;4.694;2022-09-25T01:09:28;101709.66;;;7.49;71.64
62725;BME280;49026;52.600;4.694;2022-09-25T01:11:54;101707.88;;;7.51;71.73
62725;BME280;49026;52.600;4.694;2022-09-25T01:14:22;101702.56;;;7.57;72.09
62725;BME280;49026;52.600;4.694;2022-09-25T01:16:59;101702.44;;;7.63;72.43
62725;BME280;49026;52.600;4.694;2022-09-25T01:25:22;101696.94;;;7.82;71.79
62725;BME280;49026;52.600;4.694;2022-09-25T01:30:54;101700.19;;;7.99;72.07
62725;BME280;49026;52.600;4.694;2022-09-25T01:33:34;101696.50;;;8.12;72.00
62725;BME280;49026;52.600;4.694;2022-09-25T01:36:10;101694.63;;;8.21;71.72
62725;BME280;49026;52.600;4.694;2022-09-25T01:38:46;101701.56;;;8.22;71.59
62725;BME280;49026;52.600;4.694;2022-09-25T01:41:25;101702.53;;;8.16;72.02
62725;BME280;49026;52.600;4.694;2022-09-25T01:46:22;101707.97;;;8.05;72.77
62725;BME280;49026;52.600;4.694;2022-09-25T01:48:54;101699.94;;;8.14;72.20
62725;BME280;49026;52.600;4.694;2022-09-25T01:51:25;101696.22;;;8.28;72.15
62725;BME280;49026;52.600;4.694;2022-09-25T01:53:56;101693.38;;;8.42;72.11
62725;BME280;49026;52.600;4.694;2022-09-25T01:56:32;101697.50;;;8.57;72.29
62725;BME280;49026;52.600;4.694;2022-09-25T01:59:11;101691.25;;;8.65;71.56
62725;BME280;49026;52.600;4.694;2022-09-25T02:01:41;101700.75;;;8.71;71.77
62725;BME280;49026;52.600;4.694;2022-09-25T02:04:22;101694.50;;;8.77;72.01
62725;BME280;49026;52.600;4.694;2022-09-25T02:06:50;101687.44;;;8.82;71.85
62725;BME280;49026;52.600;4.694;2022-09-25T02:09:46;101698.69;;;8.87;71.76
62725;BME280;49026;52.600;4.694;2022-09-25T02:12:20;101689.91;;;8.89;72.20
62725;BME280;49026;52.600;4.694;2022-09-25T02:14:58;101681.06;;;8.94;72.05
62725;BME280;49026;52.600;4.694;2022-09-25T02:17:57;101681.06;;;8.94;72.33
62725;BME280;49026;52.600;4.694;2022-09-25T02:20:45;101677.53;;;8.98;72.52
62725;BME280;49026;52.600;4.694;2022-09-25T02:23:30;101676.53;;;9.03;72.14
62725;BME280;49026;52.600;4.694;2022-09-25T02:26:05;101669.53;;;9.04;72.25
62725;BME280;49026;52.600;4.694;2022-09-25T02:28:31;101671.34;;;9.00;71.87
62725;BME280;49026;52.600;4.694;2022-09-25T02:30:59;101675.00;;;8.92;72.25
62725;BME280;49026;52.600;4.694;2022-09-25T02:33:26;101682.16;;;8.83;71.78
62725;BME280;49026;52.600;4.694;2022-09-25T02:35:52;101682.31;;;8.76;72.02
62725;BME280;49026;52.600;4.694;2022-09-25T02:38:19;101687.69;;;8.68;72.00
62725;BME280;49026;52.600;4.694;2022-09-25T02:40:52;101677.34;;;8.60;72.48
62725;BME280;49026;52.600;4.694;2022-09-25T02:43:44;101682.69;;;8.56;72.39
62725;BME280;49026;52.600;4.694;2022-09-25T02:48:50;101682.91;;;8.43;72.32
62725;BME280;49026;52.600;4.694;2022-09-25T02:54:20;101687.34;;;8.37;72.67
62725;BME280;49026;52.600;4.694;2022-09-25T02:57:01;101688.25;;;8.35;72.12
62725;BME280;49026;52.600;4.694;2022-09-25T02:59:39;101691.69;;;8.38;72.42
62725;BME280;49026;52.600;4.694;2022-09-25T03:02:08;101696.00;;;8.40;72.47
62725;BME280;49026;52.600;4.694;2022-09-25T03:04:36;101693.38;;;8.40;72.58
62725;BME280;49026;52.600;4.694;2022-09-25T03:07:05;101690.75;;;8.43;73.00
62725;BME280;49026;52.600;4.694;2022-09-25T03:09:34;101683.75;;;8.45;72.63
62725;BME280;49026;52.600;4.694;2022-09-25T03:12:04;101686.31;;;8.47;73.16
62725;BME280;49026;52.600;4.694;2022-09-25T03:14:30;101694.09;;;8.51;72.88
62725;BME280;49026;52.600;4.694;2022-09-25T03:16:59;101698.50;;;8.51;72.87
62725;BME280;49026;52.600;4.694;2022-09-25T03:19:28;101698.50;;;8.49;73.05
62725;BME280;49026;52.600;4.694;2022-09-25T03:21:53;101689.84;;;8.46;73.15
62725;BME280;49026;52.600;4.694;2022-09-25T03:24:19;101683.75;;;8.45;73.54
62725;BME280;49026;52.600;4.694;2022-09-25T03:26:45;101685.50;;;8.43;73.20
62725;BME280;49026;52.600;4.694;2022-09-25T03:29:19;101688.13;;;8.43;72.95
62725;BME280;49026;52.600;4.694;2022-09-25T03:31:47;101689.00;;;8.42;73.35
62725;BME280;49026;52.600;4.694;2022-09-25T03:34:15;101678.56;;;8.41;73.06
62725;BME280;49026;52.600;4.694;2022-09-25T03:36:41;101681.22;;;8.39;73.55
62725;BME280;49026;52.600;4.694;2022-09-25T03:39:07;101684.69;;;8.38;73.81
62725;BME280;49026;52.600;4.694;2022-09-25T03:41:37;101680.41;;;8.35;73.98
62725;BME280;49026;52.600;4.694;2022-09-25T03:44:05;101684.72;;;8.37;74.17
62725;BME280;49026;52.600;4.694;2022-09-25T03:46:34;101684.69;;;8.40;74.16
62725;BME280;49026;52.600;4.694;2022-09-25T03:49:00;101679.44;;;8.43;74.11
62725;BME280;49026;52.600;4.694;2022-09-25T03:51:27;101677.59;;;8.48;73.92
62725;BME280;49026;52.600;4.694;2022-09-25T03:53:55;101684.50;;;8.52;74.37
62725;BME280;49026;52.600;4.694;2022-09-25T03:56:22;101683.53;;;8.58;74.12
62725;BME280;49026;52.600;4.694;2022-09-25T03:58:49;101682.56;;;8.62;74.35
62725;BME280;49026;52.600;4.694;2022-09-25T04:01:15;101681.63;;;8.66;74.70
62725;BME280;49026;52.600;4.694;2022-09-25T04:03:41;101678.97;;;8.69;73.91
62725;BME280;49026;52.600;4.694;2022-09-25T04:06:11;101678.94;;;8.70;74.43
62725;BME280;49026;52.600;4.694;2022-09-25T04:08:39;101676.28;;;8.72;74.74
62725;BME280;49026;52.600;4.694;2022-09-25T04:11:05;101670.97;;;8.75;74.49
62725;BME280;49026;52.600;4.694;2022-09-25T04:13:35;101663.97;;;8.77;74.56
62725;BME280;49026;52.600;4.694;2022-09-25T04:16:01;101663.94;;;8.79;74.45
62725;BME280;49026;52.600;4.694;2022-09-25T04:18:27;101665.59;;;8.81;74.24
62725;BME280;49026;52.600;4.694;2022-09-25T04:21:04;101665.59;;;8.81;74.12
62725;BME280;49026;52.600;4.694;2022-09-25T04:23:32;101657.75;;;8.81;74.12
62725;BME280;49026;52.600;4.694;2022-09-25T04:25:58;101654.25;;;8.82;74.09
62725;BME280;49026;52.600;4.694;2022-09-25T04:28:24;101660.38;;;8.81;74.41
62725;BME280;49026;52.600;4.694;2022-09-25T04:30:50;101659.53;;;8.79;74.36
62725;BME280;49026;52.600;4.694;2022-09-25T04:33:16;101660.41;;;8.78;74.50
62725;BME280;49026;52.600;4.694;2022-09-25T04:36:00;101662.22;;;8.76;74.18
62725;BME280;49026;52.600;4.694;2022-09-25T04:38:26;101654.38;;;8.75;74.39
62725;BME280;49026;52.600;4.694;2022-09-25T04:40:51;101658.81;;;8.71;73.95
62725;BME280;49026;52.600;4.694;2022-09-25T04:43:17;101650.19;;;8.66;74.27
62725;BME280;49026;52.600;4.694;2022-09-25T04:45:44;101656.38;;;8.60;73.79
62725;BME280;49026;52.600;4.694;2022-09-25T04:48:12;101654.75;;;8.55;73.65
62725;BME280;49026;52.600;4.694;2022-09-25T04:50:46;101654.84;;;8.50;74.07
62725;BME280;49026;52.600;4.694;2022-09-25T04:53:12;101655.81;;;8.44;73.68
62725;BME280;49026;52.600;4.694;2022-09-25T04:55:37;101647.19;;;8.38;73.77
62725;BME280;49026;52.600;4.694;2022-09-25T04:58:03;101652.50;;;8.33;73.31
62725;BME280;49026;52.600;4.694;2022-09-25T05:00:30;101656.06;;;8.29;73.95
62725;BME280;49026;52.600;4.694;2022-09-25T05:02:56;101660.50;;;8.25;73.76
62725;BME280;49026;52.600;4.694;2022-09-25T05:05:22;101669.25;;;8.23;73.70
62725;BME280;49026;52.600;4.694;2022-09-25T05:07:59;101665.88;;;8.18;73.84
62725;BME280;49026;52.600;4.694;2022-09-25T05:10:27;101668.53;;;8.14;73.97
62725;BME280;49026;52.600;4.694;2022-09-25T05:12:56;101665.97;;;8.11;74.32
62725;BME280;49026;52.600;4.694;2022-09-25T05:15:23;101672.09;;;8.10;74.36
62725;BME280;49026;52.600;4.694;2022-09-25T05:17:48;101667.75;;;8.08;73.92
62725;BME280;49026;52.600;4.694;2022-09-25T05:20:14;101660.84;;;8.05;74.17
62725;BME280;49026;52.600;4.694;2022-09-25T05:22:40;101661.72;;;8.04;74.59
62725;BME280;49026;52.600;4.694;2022-09-25T05:25:06;101663.50;;;8.02;74.25
62725;BME280;49026;52.600;4.694;2022-09-25T05:27:33;101668.75;;;8.02;74.18
62725;BME280;49026;52.600;4.694;2022-09-25T05:29:59;101665.25;;;8.02;74.99
62725;BME280;49026;52.600;4.694;2022-09-25T05:32:25;101661.72;;;8.04;74.74
62725;BME280;49026;52.600;4.694;2022-09-25T05:34:50;101659.94;;;8.06;74.44
62725;BME280;49026;52.600;4.694;2022-09-25T05:37:18;101667.75;;;8.08;74.33
62725;BME280;49026;52.600;4.694;2022-09-25T05:39:49;101665.13;;;8.09;74.48
62725;BME280;49026;52.600;4.694;2022-09-25T05:42:14;101664.09;;;8.18;74.82
62725;BME280;49026;52.600;4.694;2022-09-25T05:44:43;101657.72;;;8.33;74.59
62725;BME280;49026;52.600;4.694;2022-09-25T05:47:08;101661.06;;;8.44;74.62
62725;BME280;49026;52.600;4.694;2022-09-25T05:49:36;101654.81;;;8.51;74.30
62725;BME280;49026;52.600;4.694;2022-09-25T05:52:02;101659.19;;;8.51;74.77
62725;BME280;49026;52.600;4.694;2022-09-25T05:54:27;101660.06;;;8.50;75.28
62725;BME280;49026;52.600;4.694;2022-09-25T05:56:52;101661.00;;;8.47;74.70
62725;BME280;49026;52.600;4.694;2022-09-25T05:59:21;101660.19;;;8.45;75.28
62725;BME280;49026;52.600;4.694;2022-09-25T06:01:46;101664.50;;;8.46;74.75
62725;BME280;49026;52.600;4.694;2022-09-25T06:04:13;101665.34;;;8.48;75.16
62725;BME280;49026;52.600;4.694;2022-09-25T06:06:39;101667.00;;;8.54;75.37
62725;BME280;49026;52.600;4.694;2022-09-25T06:09:04;101672.09;;;8.60;75.25
62725;BME280;49026;52.600;4.694;2022-09-25T06:11:29;101680.66;;;8.70;75.70
62725;BME280;49026;52.600;4.694;2022-09-25T06:13:55;101679.59;;;8.80;75.95
62725;BME280;49026;52.600;4.694;2022-09-25T06:16:21;101692.44;;;8.94;75.68
62725;BME280;49026;52.600;4.694;2022-09-25T06:18:47;101686.88;;;9.11;75.63
62725;BME280;49026;52.600;4.694;2022-09-25T06:21:12;101681.25;;;9.28;75.49
62725;BME280;49026;52.600;4.694;2022-09-25T06:23:41;101692.38;;;9.41;75.57
62725;BME280;49026;52.600;4.694;2022-09-25T06:26:09;101682.56;;;9.49;75.01
62725;BME280;49026;52.600;4.694;2022-09-25T06:28:36;101679.78;;;9.55;75.07
62725;BME280;49026;52.600;4.694;2022-09-25T06:31:03;101684.91;;;9.61;75.45
62725;BME280;49026;52.600;4.694;2022-09-25T06:33:31;101680.44;;;9.65;75.60
62725;BME280;49026;52.600;4.694;2022-09-25T06:35:56;101674.22;;;9.71;75.48
62725;BME280;49026;52.600;4.694;2022-09-25T06:38:21;101681.09;;;9.75;75.60
62725;BME280;49026;52.600;4.694;2022-09-25T06:40:47;101681.88;;;9.78;75.76
62725;BME280;49026;52.600;4.694;2022-09-25T06:43:14;101671.31;;;9.81;75.88
62725;BME280;49026;52.600;4.694;2022-09-25T06:45:41;101679.09;;;9.86;75.80
62725;BME280;49026;52.600;4.694;2022-09-25T06:48:13;101678.03;;;9.93;76.14
62725;BME280;49026;52.600;4.694;2022-09-25T06:50:43;101669.09;;;10.00;76.30
62725;BME280;49026;52.600;4.694;2022-09-25T06:53:10;101673.31;;;10.08;76.42
62725;BME280;49026;52.600;4.694;2022-09-25T06:55:36;101667.88;;;10.15;76.51
62725;BME280;49026;52.600;4.694;2022-09-25T06:58:03;101661.53;;;10.24;76.84
62725;BME280;49026;52.600;4.694;2022-09-25T07:00:30;101665.59;;;10.37;76.54
62725;BME280;49026;52.600;4.694;2022-09-25T07:03:01;101666.13;;;10.50;77.18
62725;BME280;49026;52.600;4.694;2022-09-25T07:05:45;101658.75;;;10.65;77.07
62725;BME280;49026;52.600;4.694;2022-09-25T07:08:13;101668.78;;;10.82;77.18
62725;BME280;49026;52.600;4.694;2022-09-25T07:10:46;101664.91;;;10.95;77.40
62725;BME280;49026;52.600;4.694;2022-09-25T07:13:12;101668.91;;;11.08;77.37
62725;BME280;49026;52.600;4.694;2022-09-25T07:15:37;101673.91;;;11.18;77.46
62725;BME280;49026;52.600;4.694;2022-09-25T07:18:06;101675.56;;;11.20;77.41
62725;BME280;49026;52.600;4.694;2022-09-25T07:20:31;101673.84;;;11.19;77.74
62725;BME280;49026;52.600;4.694;2022-09-25T07:23:00;101676.47;;;11.19;77.89
62725;BME280;49026;52.600;4.694;2022-09-25T07:25:29;101663.28;;;11.21;78.00
62725;BME280;49026;52.600;4.694;2022-09-25T07:27:58;101663.19;;;11.24;78.06
62725;BME280;49026;52.600;4.694;2022-09-25T07:30:27;101669.16;;;11.29;77.83
62725;BME280;49026;52.600;4.694;2022-09-25T07:32:53;101667.44;;;11.29;77.56
62725;BME280;49026;52.600;4.694;2022-09-25T07:35:19;101666.47;;;11.32;77.89
62725;BME280;49026;52.600;4.694;2022-09-25T07:37:44;101667.22;;;11.36;77.90
62725;BME280;49026;52.600;4.694;2022-09-25T07:40:09;101667.13;;;11.39;77.57
62725;BME280;49026;52.600;4.694;2022-09-25T07:42:41;101665.16;;;11.45;77.55
62725;BME280;49026;52.600;4.694;2022-09-25T07:45:07;101668.84;;;11.70;78.22
62725;BME280;49026;52.600;4.694;2022-09-25T07:47:33;101675.56;;;12.07;78.04
62725;BME280;49026;52.600;4.694;2022-09-25T07:49:58;101669.19;;;12.39;77.76
62725;BME280;49026;52.600;4.694;2022-09-25T07:52:23;101665.16;;;12.79;78.15
62725;BME280;49026;52.600;4.694;2022-09-25T07:54:49;101672.38;;;13.21;78.48
62725;BME280;49026;52.600;4.694;2022-09-25T07:57:14;101666.53;;;13.60;78.80
62725;BME280;49026;52.600;4.694;2022-09-25T07:59:40;101672.31;;;13.92;79.58
62725;BME280;49026;52.600;4.694;2022-09-25T08:02:05;101676.59;;;14.37;80.43
62725;BME280;49026;52.600;4.694;2022-09-25T08:04:31;101678.31;;;14.79;80.95
62725;BME280;49026;52.600;4.694;2022-09-25T08:06:59;101673.13;;;14.97;81.40
62725;BME280;49026;52.600;4.694;2022-09-25T08:09:25;101669.31;;;14.84;81.57
62725;BME280;49026;52.600;4.694;2022-09-25T08:11:50;101667.59;;;14.82;81.66
62725;BME280;49026;52.600;4.694;2022-09-25T08:14:18;101674.50;;;15.06;81.93
62725;BME280;49026;52.600;4.694;2022-09-25T08:16:43;101668.78;;;15.34;81.96
62725;BME280;49026;52.600;4.694;2022-09-25T08:19:10;101672.75;;;15.62;81.91
62725;BME280;49026;52.600;4.694;2022-09-25T08:21:35;101673.75;;;15.78;81.70
62725;BME280;49026;52.600;4.694;2022-09-25T08:24:01;101671.44;;;15.89;81.90
62725;BME280;49026;52.600;4.694;2022-09-25T08:26:27;101671.38;;;15.91;81.62
62725;BME280;49026;52.600;4.694;2022-09-25T08:28:53;101675.16;;;15.85;81.65
62725;BME280;49026;52.600;4.694;2022-09-25T08:31:18;101677.75;;;15.87;82.37
62725;BME280;49026;52.600;4.694;2022-09-25T08:33:47;101669.44;;;15.95;82.71
62725;BME280;49026;52.600;4.694;2022-09-25T08:36:13;101664.69;;;16.01;82.64
62725;BME280;49026;52.600;4.694;2022-09-25T08:38:40;101667.81;;;16.09;82.85
62725;BME280;49026;52.600;4.694;2022-09-25T08:41:21;101666.19;;;16.24;83.05
62725;BME280;49026;52.600;4.694;2022-09-25T08:43:59;101661.50;;;16.29;81.88
62725;BME280;49026;52.600;4.694;2022-09-25T08:46:54;101662.72;;;16.40;82.91
62725;BME280;49026;52.600;4.694;2022-09-25T08:52:35;101657.81;;;16.49;82.25
62725;BME280;49026;52.600;4.694;2022-09-25T08:55:01;101663.75;;;16.55;82.15
62725;BME280;49026;52.600;4.694;2022-09-25T08:57:32;101660.34;;;16.68;81.39
62725;BME280;49026;52.600;4.694;2022-09-25T09:00:16;101664.28;;;16.61;80.88
62725;BME280;49026;52.600;4.694;2022-09-25T09:02:56;101659.81;;;16.62;80.89
62725;BME280;49026;52.600;4.694;2022-09-25T09:05:26;101661.50;;;16.80;79.50
62725;BME280;49026;52.600;4.694;2022-09-25T09:07:57;101660.13;;;16.91;79.37
62725;BME280;49026;52.600;4.694;2022-09-25T09:13:01;101669.06;;;17.21;79.20
62725;BME280;49026;52.600;4.694;2022-09-25T09:15:56;101667.59;;;17.32;79.78
62725;BME280;49026;52.600;4.694;2022-09-25T09:18:27;101667.84;;;17.59;80.31
62725;BME280;49026;52.600;4.694;2022-09-25T09:23:35;101670.56;;;18.05;77.57
62725;BME280;49026;52.600;4.694;2022-09-25T09:26:15;101667.22;;;17.86;78.69
62725;BME280;49026;52.600;4.694;2022-09-25T09:37:21;101665.78;;;17.80;79.12
62725;BME280;49026;52.600;4.694;2022-09-25T09:39:57;101664.41;;;18.05;79.28
62725;BME280;49026;52.600;4.694;2022-09-25T09:48:43;101656.13;;;18.54;76.48
62725;BME280;49026;52.600;4.694;2022-09-25T09:51:17;101652.63;;;18.82;77.22
62725;BME280;49026;52.600;4.694;2022-09-25T09:53:50;101642.94;;;18.81;75.93
62725;BME280;49026;52.600;4.694;2022-09-25T09:56:23;101652.34;;;18.73;77.71
62725;BME280;49026;52.600;4.694;2022-09-25T09:58:54;101641.41;;;18.77;77.15
62725;BME280;49026;52.600;4.694;2022-09-25T10:01:23;101638.63;;;18.36;78.06
62725;BME280;49026;52.600;4.694;2022-09-25T10:03:59;101654.56;;;17.59;77.56
62725;BME280;49026;52.600;4.694;2022-09-25T10:06:28;101644.56;;;17.16;78.31
62725;BME280;49026;52.600;4.694;2022-09-25T10:08:55;101643.72;;;17.48;78.66
62725;BME280;49026;52.600;4.694;2022-09-25T10:11:21;101636.22;;;18.17;78.48
62725;BME280;49026;52.600;4.694;2022-09-25T10:13:46;101644.44;;;18.57;79.12
62725;BME280;49026;52.600;4.694;2022-09-25T10:16:18;101641.75;;;18.42;78.58
62725;BME280;49026;52.600;4.694;2022-09-25T10:19:10;101644.94;;;18.04;77.33
62725;BME280;49026;52.600;4.694;2022-09-25T10:21:39;101639.91;;;17.68;75.69
62725;BME280;49026;52.600;4.694;2022-09-25T10:24:08;101629.63;;;17.46;75.93
62725;BME280;49026;52.600;4.694;2022-09-25T10:26:34;101635.38;;;18.16;74.93
62725;BME280;49026;52.600;4.694;2022-09-25T10:31:32;101640.91;;;17.97;71.96
62725;BME280;49026;52.600;4.694;2022-09-25T10:36:36;101636.66;;;18.09;72.17
62725;BME280;49026;52.600;4.694;2022-09-25T10:39:03;101630.91;;;18.17;71.48
62725;BME280;49026;52.600;4.694;2022-09-25T10:41:40;101636.00;;;17.43;69.87
62725;BME280;49026;52.600;4.694;2022-09-25T10:44:20;101646.50;;;16.28;71.17
62725;BME280;49026;52.600;4.694;2022-09-25T10:46:46;101647.00;;;15.46;71.30
62725;BME280;49026;52.600;4.694;2022-09-25T10:49:30;101646.81;;;14.94;71.27
62725;BME280;49026;52.600;4.694;2022-09-25T10:52:15;101643.34;;;14.52;70.73
62725;BME280;49026;52.600;4.694;2022-09-25T10:54:43;101637.25;;;14.30;70.53
62725;BME280;49026;52.600;4.694;2022-09-25T10:57:30;101641.56;;;14.12;70.54
62725;BME280;49026;52.600;4.694;2022-09-25T11:00:03;101641.13;;;14.00;70.57
62725;BME280;49026;52.600;4.694;2022-09-25T11:02:37;101629.56;;;14.03;70.53
62725;BME280;49026;52.600;4.694;2022-09-25T11:05:06;101633.91;;;14.67;71.35
62725;BME280;49026;52.600;4.694;2022-09-25T11:07:46;101630.72;;;15.17;70.61
62725;BME280;49026;52.600;4.694;2022-09-25T11:10:27;101619.75;;;15.62;70.35
62725;BME280;49026;52.600;4.694;2022-09-25T11:12:54;101622.13;;;16.04;69.24
62725;BME280;49026;52.600;4.694;2022-09-25T11:15:25;101618.47;;;15.70;69.27
62725;BME280;49026;52.600;4.694;2022-09-25T11:18:00;101616.31;;;15.42;69.85
62725;BME280;49026;52.600;4.694;2022-09-25T11:20:30;101623.00;;;15.32;70.38
62725;BME280;49026;52.600;4.694;2022-09-25T11:25:55;101617.81;;;15.48;70.93
62725;BME280;49026;52.600;4.694;2022-09-25T11:31:10;101613.63;;;16.82;71.79
62725;BME280;49026;52.600;4.694;2022-09-25T11:33:48;101614.16;;;17.84;70.28
62725;BME280;49026;52.600;4.694;2022-09-25T11:36:26;101606.38;;;18.85;69.96
62725;BME280;49026;52.600;4.694;2022-09-25T11:38:55;101596.06;;;19.89;69.04
62725;BME280;49026;52.600;4.694;2022-09-25T11:44:35;101596.97;;;20.15;66.68
62725;BME280;49026;52.600;4.694;2022-09-25T11:49:38;101597.22;;;18.89;67.67
62725;BME280;49026;52.600;4.694;2022-09-25T11:55:18;101585.72;;;17.70;61.73
62725;BME280;49026;52.600;4.694;2022-09-25T12:00:44;101585.88;;;16.72;69.10
62725;BME280;49026;52.600;4.694;2022-09-25T12:11:25;101574.34;;;17.99;68.23
62725;BME280;49026;52.600;4.694;2022-09-25T12:17:09;101563.44;;;18.61;67.30
62725;BME280;49026;52.600;4.694;2022-09-25T12:19:43;101565.75;;;18.38;67.68
62725;BME280;49026;52.600;4.694;2022-09-25T12:22:20;101574.72;;;18.07;67.70
62725;BME280;49026;52.600;4.694;2022-09-25T12:24:51;101567.78;;;17.90;67.81
62725;BME280;49026;52.600;4.694;2022-09-25T12:30:12;101566.03;;;17.89;66.50
62725;BME280;49026;52.600;4.694;2022-09-25T12:38:21;101554.16;;;19.51;64.15
62725;BME280;49026;52.600;4.694;2022-09-25T12:46:33;101542.81;;;20.26;64.38
62725;BME280;49026;52.600;4.694;2022-09-25T12:49:16;101541.66;;;20.30;64.20
62725;BME280;49026;52.600;4.694;2022-09-25T12:51:51;101538.91;;;19.66;64.51
62725;BME280;49026;52.600;4.694;2022-09-25T12:54:25;101548.00;;;19.09;64.69
62725;BME280;49026;52.600;4.694;2022-09-25T12:57:12;101552.06;;;18.73;65.78
62725;BME280;49026;52.600;4.694;2022-09-25T13:00:04;101534.97;;;18.48;65.45
62725;BME280;49026;52.600;4.694;2022-09-25T13:05:22;101541.13;;;18.49;64.54
62725;BME280;49026;52.600;4.694;2022-09-25T13:10:38;101533.50;;;18.00;65.02
62725;BME280;49026;52.600;4.694;2022-09-25T13:13:11;101532.28;;;17.91;64.56
62725;BME280;49026;52.600;4.694;2022-09-25T13:15:49;101526.41;;;17.54;64.38
62725;BME280;49026;52.600;4.694;2022-09-25T13:18:19;101531.97;;;17.19;64.78
62725;BME280;49026;52.600;4.694;2022-09-25T13:20:52;101532.00;;;16.87;65.20
62725;BME280;49026;52.600;4.694;2022-09-25T13:25:49;101527.22;;;16.44;66.16
62725;BME280;49026;52.600;4.694;2022-09-25T13:28:29;101530.34;;;16.35;66.18
62725;BME280;49026;52.600;4.694;2022-09-25T13:36:11;101522.91;;;16.08;66.16
62725;BME280;49026;52.600;4.694;2022-09-25T13:38:44;101518.31;;;16.12;66.27
62725;BME280;49026;52.600;4.694;2022-09-25T13:41:29;101517.38;;;16.30;66.36
62725;BME280;49026;52.600;4.694;2022-09-25T13:55:18;101508.91;;;16.40;65.56
62725;BME280;49026;52.600;4.694;2022-09-25T14:00:21;101500.97;;;16.72;65.88
62725;BME280;49026;52.600;4.694;2022-09-25T14:02:47;101502.59;;;17.52;65.37
62725;BME280;49026;52.600;4.694;2022-09-25T14:05:16;101497.97;;;18.44;63.36
62725;BME280;49026;52.600;4.694;2022-09-25T14:07:44;101486.28;;;19.42;62.70
62725;BME280;49026;52.600;4.694;2022-09-25T14:10:11;101483.53;;;20.10;59.26
62725;BME280;49026;52.600;4.694;2022-09-25T14:12:40;101484.25;;;19.99;59.26
62725;BME280;49026;52.600;4.694;2022-09-25T14:15:19;101478.19;;;19.97;60.11
62725;BME280;49026;52.600;4.694;2022-09-25T14:17:47;101482.66;;;20.22;59.58
62725;BME280;49026;52.600;4.694;2022-09-25T14:20:41;101482.22;;;20.28;59.35
62725;BME280;49026;52.600;4.694;2022-09-25T14:23:13;101467.69;;;20.32;59.12
62725;BME280;49026;52.600;4.694;2022-09-25T14:25:39;101479.63;;;20.40;59.21
62725;BME280;49026;52.600;4.694;2022-09-25T14:28:21;101471.38;;;20.92;59.22
62725;BME280;49026;52.600;4.694;2022-09-25T14:36:23;101458.38;;;21.48;58.09
62725;BME280;49026;52.600;4.694;2022-09-25T14:39:17;101452.06;;;21.49;57.81
62725;BME280;49026;52.600;4.694;2022-09-25T14:42:13;101457.44;;;21.60;57.95
62725;BME280;49026;52.600;4.694;2022-09-25T14:47:47;101451.75;;;22.10;57.10
62725;BME280;49026;52.600;4.694;2022-09-25T14:50:30;101452.88;;;22.30;56.19
62725;BME280;49026;52.600;4.694;2022-09-25T14:53:01;101451.44;;;22.37;55.71
62725;BME280;49026;52.600;4.694;2022-09-25T14:55:41;101456.03;;;22.57;55.27
62725;BME280;49026;52.600;4.694;2022-09-25T14:58:15;101449.72;;;22.91;54.31
62725;BME280;49026;52.600;4.694;2022-09-25T15:00:48;101442.00;;;23.09;53.52
62725;BME280;49026;52.600;4.694;2022-09-25T15:03:16;101440.06;;;23.00;54.18
62725;BME280;49026;52.600;4.694;2022-09-25T15:05:47;101446.50;;;22.53;53.19
62725;BME280;49026;52.600;4.694;2022-09-25T15:08:36;101441.69;;;21.91;53.01
62725;BME280;49026;52.600;4.694;2022-09-25T15:11:14;101440.06;;;21.65;53.85
62725;BME280;49026;52.600;4.694;2022-09-25T15:13:40;101437.78;;;21.72;53.66
62725;BME280;49026;52.600;4.694;2022-09-25T15:16:12;101443.72;;;21.29;52.33
62725;BME280;49026;52.600;4.694;2022-09-25T15:18:57;101444.44;;;20.22;53.81